createdAt,value
2018-10-06T00:02:25.865Z,12.18
2018-10-06T00:04:54.752Z,8.93
2018-10-06T00:07:23.117Z,8.90
2018-10-06T00:09:51.402Z,9.35
2018-10-06T00:12:19.463Z,13.35
2018-10-06T00:14:47.517Z,16.17
2018-10-06T00:17:15.612Z,15.50
2018-10-06T00:19:43.776Z,15.20
2018-10-06T00:22:11.881Z,15.65
2018-10-06T00:24:39.912Z,17.23
2018-10-06T00:27:08.338Z,16.77
2018-10-06T00:29:36.816Z,20.20
2018-10-06T00:32:04.873Z,22.25
2018-10-06T00:34:32.952Z,27.52
2018-10-06T00:37:01.124Z,33.13
2018-10-06T00:39:29.293Z,46.83
2018-10-06T00:41:57.373Z,55.60
2018-10-06T00:44:25.661Z,35.63
2018-10-06T00:46:53.699Z,22.13
2018-10-06T00:49:21.902Z,30.60
2018-10-06T00:51:50.285Z,37.42
2018-10-06T00:54:18.392Z,29.75
2018-10-06T00:56:46.504Z,25.17
2018-10-06T00:59:14.693Z,19.62
2018-10-06T01:01:42.793Z,16.55
2018-10-06T01:04:11.157Z,16.02
2018-10-06T01:06:39.283Z,16.85
2018-10-06T01:09:08.960Z,16.40
2018-10-06T01:11:37.141Z,18.95
2018-10-06T01:14:05.263Z,20.60
2018-10-06T01:16:33.405Z,20.62
2018-10-06T01:19:01.434Z,19.12
2018-10-06T01:21:29.688Z,17.98
2018-10-06T01:23:57.799Z,17.75
2018-10-06T01:26:25.831Z,19.00
2018-10-06T01:28:54.136Z,17.62
2018-10-06T01:31:22.196Z,17.77
2018-10-06T01:33:50.275Z,18.77
2018-10-06T01:36:18.427Z,20.27
2018-10-06T01:38:46.528Z,20.90
2018-10-06T01:41:14.908Z,18.73
2018-10-06T01:43:42.969Z,17.50
2018-10-06T01:46:11.364Z,16.65
2018-10-06T01:48:39.520Z,16.57
2018-10-06T01:51:07.773Z,25.80
2018-10-06T01:53:35.849Z,28.60
2018-10-06T01:56:03.879Z,28.30
2018-10-06T01:58:31.904Z,27.98
2018-10-06T02:00:59.987Z,26.03
2018-10-06T02:03:28.087Z,24.77
2018-10-06T02:05:56.136Z,24.25
2018-10-06T02:08:24.228Z,23.47
2018-10-06T02:10:52.268Z,22.40
2018-10-06T02:13:20.500Z,20.32
2018-10-06T02:15:48.527Z,20.27
2018-10-06T02:18:16.837Z,18.50
2018-10-06T02:20:45.091Z,17.70
2018-10-06T02:23:13.196Z,17.63
2018-10-06T02:25:41.233Z,19.45
2018-10-06T02:28:09.406Z,18.30
2018-10-06T02:30:37.510Z,17.82
2018-10-06T02:33:05.752Z,18.00
2018-10-06T02:35:34.217Z,17.25
2018-10-06T02:38:02.192Z,16.73
2018-10-06T02:40:30.325Z,16.37
2018-10-06T02:42:58.456Z,16.67
2018-10-06T02:45:26.580Z,15.00
2018-10-06T02:47:54.693Z,14.33
2018-10-06T02:50:22.791Z,16.12
2018-10-06T02:52:51.164Z,16.12
2018-10-06T02:55:19.239Z,14.28
2018-10-06T02:57:47.355Z,14.10
2018-10-06T03:00:15.476Z,12.98
2018-10-06T03:02:43.688Z,12.73
2018-10-06T03:05:11.837Z,12.68
2018-10-06T03:07:39.924Z,15.30
2018-10-06T03:10:07.976Z,15.30
2018-10-06T03:12:36.075Z,15.00
2018-10-06T03:15:04.230Z,15.90
2018-10-06T03:17:32.430Z,14.43
2018-10-06T03:20:00.509Z,12.40
2018-10-06T03:22:28.567Z,13.22
2018-10-06T03:24:56.634Z,13.90
2018-10-06T03:27:24.769Z,13.50
2018-10-06T03:29:52.881Z,13.80
2018-10-06T03:32:21.052Z,13.40
2018-10-06T03:34:49.180Z,12.80
2018-10-06T03:37:17.311Z,13.05
2018-10-06T03:39:45.457Z,12.43
2018-10-06T03:42:13.597Z,12.30
2018-10-06T03:44:41.743Z,11.60
2018-10-06T03:47:09.922Z,10.30
2018-10-06T03:49:37.954Z,10.48
2018-10-06T03:52:06.219Z,10.55
2018-10-06T03:54:34.329Z,9.88
2018-10-06T03:57:02.404Z,10.70
2018-10-06T03:59:30.453Z,9.90
2018-10-06T04:01:58.551Z,13.20
2018-10-06T04:04:26.600Z,14.40
2018-10-06T04:06:54.698Z,14.93
2018-10-06T04:09:22.864Z,12.70
2018-10-06T04:11:50.972Z,13.48
2018-10-06T04:14:19.034Z,13.22
2018-10-06T04:16:47.075Z,13.15
2018-10-06T04:19:15.169Z,13.70
2018-10-06T04:21:47.005Z,13.70
2018-10-06T04:24:16.278Z,15.13
2018-10-06T04:26:44.580Z,14.95
2018-10-06T04:29:12.788Z,14.85
2018-10-06T04:31:40.972Z,14.70
2018-10-06T04:34:09.393Z,13.70
2018-10-06T04:36:37.519Z,12.73
2018-10-06T04:39:10.549Z,12.15
2018-10-06T04:41:38.564Z,12.13
2018-10-06T04:44:07.180Z,11.70
2018-10-06T04:46:35.228Z,11.20
2018-10-06T04:49:03.306Z,13.43
2018-10-06T04:51:31.382Z,12.98
2018-10-06T04:53:59.440Z,11.83
2018-10-06T04:56:27.554Z,13.70
2018-10-06T04:58:55.576Z,14.50
2018-10-06T05:01:23.678Z,13.47
2018-10-06T05:03:51.717Z,13.95
2018-10-06T05:06:19.803Z,13.72
2018-10-06T05:08:47.880Z,13.38
2018-10-06T05:11:15.957Z,12.18
2018-10-06T05:13:44.197Z,13.13
2018-10-06T05:16:12.289Z,14.18
2018-10-06T05:18:40.392Z,12.70
2018-10-06T05:21:08.446Z,12.20
2018-10-06T05:23:36.580Z,12.23
2018-10-06T05:26:04.784Z,16.87
2018-10-06T05:28:32.990Z,20.35
2018-10-06T05:31:01.074Z,18.73
2018-10-06T05:33:29.392Z,18.02
2018-10-06T05:35:57.505Z,15.30
2018-10-06T05:38:25.665Z,14.10
2018-10-06T05:40:54.061Z,14.40
2018-10-06T05:43:22.239Z,14.53
2018-10-06T05:45:50.523Z,15.48
2018-10-06T05:48:18.578Z,15.30
2018-10-06T05:50:46.764Z,14.75
2018-10-06T05:53:14.936Z,14.60
2018-10-06T05:55:43.106Z,14.10
2018-10-06T05:58:11.297Z,14.23
2018-10-06T06:00:39.335Z,12.57
2018-10-06T06:03:07.447Z,11.70
2018-10-06T06:05:35.510Z,12.70
2018-10-06T06:08:03.576Z,16.47
2018-10-06T06:10:31.734Z,12.70
2018-10-06T06:12:59.853Z,13.90
2018-10-06T06:15:28.056Z,13.35
2018-10-06T06:17:56.084Z,14.10
2018-10-06T06:20:24.173Z,13.35
2018-10-06T06:22:52.204Z,14.18
2018-10-06T06:25:20.346Z,14.40
2018-10-06T06:27:48.576Z,13.93
2018-10-06T06:30:16.767Z,12.13
2018-10-06T06:32:44.810Z,10.90
2018-10-06T06:35:12.997Z,10.95
2018-10-06T06:37:41.195Z,11.28
2018-10-06T06:40:09.312Z,10.40
2018-10-06T06:42:37.669Z,10.15
2018-10-06T06:45:05.932Z,10.28
2018-10-06T06:47:34.139Z,10.00
2018-10-06T06:50:02.252Z,9.80
2018-10-06T06:52:30.299Z,9.60
2018-10-06T06:54:58.446Z,8.85
2018-10-06T06:57:26.484Z,8.70
2018-10-06T06:59:54.681Z,8.20
2018-10-06T07:02:22.701Z,8.25
2018-10-06T07:04:50.898Z,8.98
2018-10-06T07:07:19.014Z,8.90
2018-10-06T07:09:47.027Z,9.00
2018-10-06T07:12:15.329Z,8.30
2018-10-06T07:14:43.383Z,7.12
2018-10-06T07:17:11.628Z,7.70
2018-10-06T07:19:39.834Z,7.08
2018-10-06T07:22:07.929Z,6.83
2018-10-06T07:24:36.104Z,7.22
2018-10-06T07:27:04.193Z,7.35
2018-10-06T07:29:32.340Z,6.55
2018-10-06T07:32:00.395Z,7.00
2018-10-06T07:34:28.604Z,6.20
2018-10-06T07:36:56.752Z,6.40
2018-10-06T07:39:24.941Z,6.15
2018-10-06T07:41:52.991Z,5.78
2018-10-06T07:44:21.297Z,5.90
2018-10-06T07:46:49.396Z,7.05
2018-10-06T07:49:17.406Z,7.00
2018-10-06T07:51:45.509Z,6.60
2018-10-06T07:54:13.562Z,6.70
2018-10-06T07:56:41.719Z,6.35
2018-10-06T07:59:09.746Z,7.12
2018-10-06T08:01:38.004Z,6.92
2018-10-06T08:04:06.062Z,6.83
2018-10-06T08:06:34.212Z,6.58
2018-10-06T08:09:02.391Z,6.20
2018-10-06T08:11:30.528Z,6.10
2018-10-06T08:13:58.579Z,6.40
2018-10-06T08:16:26.643Z,6.45
2018-10-06T08:18:54.756Z,6.60
2018-10-06T08:21:22.868Z,6.87
2018-10-06T08:23:50.983Z,6.33
2018-10-06T08:26:19.433Z,6.50
2018-10-06T08:28:47.638Z,7.00
2018-10-06T08:31:15.677Z,6.80
2018-10-06T08:33:43.789Z,7.15
2018-10-06T08:36:11.881Z,7.00
2018-10-06T08:38:39.898Z,7.17
2018-10-06T08:41:08.208Z,6.85
2018-10-06T08:43:36.270Z,7.40
2018-10-06T08:46:04.349Z,6.65
2018-10-06T08:48:32.395Z,7.22
2018-10-06T08:51:00.497Z,7.10
2018-10-06T08:53:28.760Z,7.67
2018-10-06T08:55:56.852Z,7.80
2018-10-06T08:58:25.121Z,8.10
2018-10-06T09:00:53.472Z,8.10
2018-10-06T09:03:21.687Z,9.00
2018-10-06T09:05:49.833Z,8.60
2018-10-06T09:08:17.925Z,7.87
2018-10-06T09:10:46.064Z,7.15
2018-10-06T09:13:14.142Z,7.87
2018-10-06T09:15:42.365Z,7.28
2018-10-06T09:18:10.618Z,8.05
2018-10-06T09:20:38.972Z,8.90
2018-10-06T09:23:07.062Z,8.15
2018-10-06T09:25:35.352Z,8.20
2018-10-06T09:28:03.539Z,8.53
2018-10-06T09:30:31.598Z,10.40
2018-10-06T09:32:59.791Z,8.70
2018-10-06T09:35:28.044Z,9.43
2018-10-06T09:37:56.252Z,8.80
2018-10-06T09:40:24.308Z,9.00
2018-10-06T09:42:52.594Z,8.85
2018-10-06T09:45:20.635Z,8.88
2018-10-06T09:47:48.831Z,8.50
2018-10-06T09:50:17.000Z,8.78
2018-10-06T09:52:45.170Z,8.40
2018-10-06T09:55:13.350Z,8.03
2018-10-06T09:57:41.503Z,10.00
2018-10-06T10:00:09.610Z,8.75
2018-10-06T10:02:43.257Z,9.20
2018-10-06T10:05:16.986Z,8.73
2018-10-06T10:07:45.163Z,9.98
2018-10-06T10:10:13.289Z,8.60
2018-10-06T10:12:41.476Z,8.65
2018-10-06T10:15:09.624Z,8.95
2018-10-06T10:17:37.783Z,8.58
2018-10-06T10:20:05.765Z,9.58
2018-10-06T10:22:33.961Z,8.63
2018-10-06T10:25:02.161Z,8.40
2018-10-06T10:27:30.289Z,8.08
2018-10-06T10:29:58.439Z,8.43
2018-10-06T10:32:26.540Z,8.30
2018-10-06T10:34:54.593Z,8.40
2018-10-06T10:37:22.708Z,8.35
2018-10-06T10:39:50.848Z,7.42
2018-10-06T10:42:19.058Z,7.90
2018-10-06T10:44:47.239Z,7.80
2018-10-06T10:47:15.371Z,7.80
2018-10-06T10:49:43.677Z,7.83
2018-10-06T10:52:11.846Z,8.65
2018-10-06T10:54:39.925Z,8.10
2018-10-06T10:57:07.977Z,9.37
2018-10-06T10:59:36.131Z,9.00
2018-10-06T11:02:04.196Z,9.45
2018-10-06T11:04:32.498Z,8.18
2018-10-06T11:07:00.589Z,9.20
2018-10-06T11:09:28.825Z,7.70
2018-10-06T11:11:57.044Z,8.25
2018-10-06T11:14:25.293Z,8.05
2018-10-06T11:16:53.501Z,8.75
2018-10-06T11:19:21.539Z,8.43
2018-10-06T11:21:49.634Z,8.40
2018-10-06T11:24:17.815Z,8.23
2018-10-06T11:26:45.889Z,10.40
2018-10-06T11:29:14.151Z,8.00
2018-10-06T11:31:42.200Z,7.67
2018-10-06T11:34:10.310Z,8.13
2018-10-06T11:36:38.306Z,7.23
2018-10-06T11:39:08.082Z,7.50
2018-10-06T11:41:36.131Z,8.50
2018-10-06T11:44:04.448Z,6.90
2018-10-06T11:46:32.481Z,7.60
2018-10-06T11:49:00.596Z,7.20
2018-10-06T11:51:28.741Z,5.40
2018-10-06T11:53:57.179Z,7.13
2018-10-06T11:56:25.190Z,7.90
2018-10-06T11:58:53.276Z,8.60
2018-10-06T12:01:21.460Z,8.20
2018-10-06T12:03:49.616Z,7.83
2018-10-06T12:06:17.808Z,7.57
2018-10-06T12:08:45.989Z,6.77
2018-10-06T12:11:14.173Z,8.30
2018-10-06T12:13:42.200Z,6.93
2018-10-06T12:16:10.313Z,6.50
2018-10-06T12:18:38.368Z,6.43
2018-10-06T12:21:06.476Z,6.40
2018-10-06T12:23:34.499Z,7.30
2018-10-06T12:26:02.645Z,6.63
2018-10-06T12:28:31.581Z,6.30
2018-10-06T12:31:03.549Z,6.83
2018-10-06T12:33:35.481Z,7.17
2018-10-06T12:36:05.285Z,6.20
2018-10-06T12:38:33.613Z,6.23
2018-10-06T12:41:01.711Z,6.20
2018-10-06T12:43:29.759Z,5.77
2018-10-06T12:46:00.430Z,5.70
2018-10-06T12:48:28.706Z,5.90
2018-10-06T12:51:00.853Z,6.60
2018-10-06T12:53:33.806Z,6.30
2018-10-06T12:56:01.900Z,5.63
2018-10-06T12:58:30.077Z,5.33
2018-10-06T13:00:58.154Z,6.37
2018-10-06T13:03:26.198Z,6.07
2018-10-06T13:05:54.469Z,6.20
2018-10-06T13:08:22.554Z,5.73
2018-10-06T13:10:50.648Z,6.20
2018-10-06T13:13:18.986Z,6.00
2018-10-06T13:15:53.392Z,6.60
2018-10-06T13:18:29.633Z,6.17
2018-10-06T13:21:08.953Z,7.17
2018-10-06T13:23:43.007Z,6.60
2018-10-06T13:26:12.380Z,6.87
2018-10-06T13:28:48.428Z,7.20
2018-10-06T13:31:25.928Z,7.00
2018-10-06T13:34:07.729Z,7.47
2018-10-06T13:36:45.553Z,7.70
2018-10-06T18:41:02.454Z,7.05
2018-10-06T18:43:30.580Z,6.20
2018-10-06T18:45:59.084Z,7.40
2018-10-06T18:48:27.420Z,7.10
2018-10-06T18:50:55.901Z,7.50
2018-10-06T18:53:23.921Z,8.73
2018-10-06T18:58:43.657Z,11.55
2018-10-06T19:01:11.785Z,11.65
2018-10-06T19:03:39.901Z,10.50
2018-10-06T19:06:08.026Z,8.80
2018-10-06T19:08:36.428Z,9.00
2018-10-06T19:11:04.780Z,9.30
2018-10-06T19:13:33.171Z,10.15
2018-10-06T19:16:01.336Z,10.30
2018-10-06T19:18:29.737Z,9.93
2018-10-06T19:20:57.920Z,9.70
2018-10-06T19:23:25.920Z,10.90
2018-10-06T19:25:54.065Z,11.45
2018-10-06T19:28:22.328Z,11.65
2018-10-06T19:30:50.621Z,12.30
2018-10-06T19:33:18.761Z,12.07
2018-10-06T19:35:46.985Z,12.00
2018-10-06T19:38:15.321Z,12.78
2018-10-06T19:40:43.421Z,11.45
2018-10-06T19:43:11.475Z,11.10
2018-10-06T19:45:39.715Z,10.90
2018-10-06T19:48:07.712Z,11.45
2018-10-06T19:50:35.900Z,9.10
2018-10-06T19:53:04.377Z,8.40
2018-10-06T19:55:32.704Z,7.10
2018-10-06T19:58:00.932Z,9.35
2018-10-06T20:00:29.140Z,10.58
2018-10-06T20:02:57.293Z,11.30
2018-10-06T20:05:25.590Z,9.43
2018-10-06T20:07:53.641Z,8.60
2018-10-06T20:10:21.955Z,9.15
2018-10-06T20:12:50.094Z,9.17
2018-10-06T20:15:18.381Z,9.05
2018-10-06T20:17:46.541Z,9.50
2018-10-06T20:20:14.829Z,10.10
2018-10-06T20:22:43.193Z,11.10
2018-10-06T20:25:11.401Z,10.30
2018-10-06T20:27:39.437Z,11.83
2018-10-06T20:30:07.634Z,11.25
2018-10-06T20:32:35.926Z,10.93
2018-10-06T20:35:04.192Z,10.70
2018-10-06T20:37:32.354Z,10.83
2018-10-06T20:40:00.773Z,11.40
2018-10-06T20:42:28.983Z,9.73
2018-10-06T20:44:57.078Z,9.88
2018-10-06T20:47:25.301Z,9.20
2018-10-06T20:49:53.639Z,9.30
2018-10-06T20:52:22.050Z,10.18
2018-10-06T20:54:50.237Z,10.30
2018-10-06T20:57:18.385Z,10.17
2018-10-06T20:59:46.466Z,10.00
2018-10-06T21:02:14.541Z,10.03
2018-10-06T21:04:42.609Z,10.05
2018-10-06T21:07:10.774Z,9.50
2018-10-06T21:09:39.009Z,9.90
2018-10-06T21:12:07.521Z,8.90
2018-10-06T21:14:35.613Z,8.85
2018-10-06T21:17:03.873Z,9.65
2018-10-06T21:19:32.111Z,11.90
2018-10-06T21:22:00.250Z,11.00
2018-10-06T21:24:28.430Z,10.50
2018-10-06T21:26:56.676Z,11.22
2018-10-06T21:29:24.925Z,10.18
2018-10-06T21:31:52.820Z,10.50
2018-10-06T21:34:20.954Z,11.20
2018-10-06T21:36:48.959Z,12.37
2018-10-06T21:39:17.172Z,14.30
2018-10-06T21:41:45.213Z,14.10
2018-10-06T21:44:13.425Z,12.20
2018-10-06T21:46:41.488Z,12.23
2018-10-06T21:49:09.660Z,11.20
2018-10-06T21:51:37.851Z,11.08
2018-10-06T21:54:05.905Z,10.40
2018-10-06T21:56:34.097Z,10.60
2018-10-06T21:59:02.355Z,11.28
2018-10-06T22:01:30.626Z,11.80
2018-10-06T22:03:58.688Z,11.80
2018-10-06T22:06:26.797Z,11.97
2018-10-06T22:08:55.272Z,11.53
2018-10-06T22:11:23.679Z,11.97
2018-10-06T22:13:51.929Z,11.65
2018-10-06T22:16:20.189Z,11.90
2018-10-06T22:18:48.269Z,11.53
2018-10-06T22:21:16.453Z,11.10
2018-10-06T22:23:44.728Z,13.22
2018-10-06T22:26:12.812Z,12.70
2018-10-06T22:28:40.867Z,13.80
2018-10-06T22:31:08.954Z,14.30
2018-10-06T22:33:37.020Z,14.70
2018-10-06T22:36:05.085Z,14.53
2018-10-06T22:38:33.284Z,14.25
2018-10-06T22:41:01.460Z,15.40
2018-10-06T22:43:29.550Z,15.30
2018-10-06T22:45:57.718Z,14.95
2018-10-06T22:48:26.077Z,14.55
2018-10-06T22:50:54.133Z,15.15
2018-10-06T22:53:22.226Z,14.53
2018-10-06T22:55:50.291Z,14.70
2018-10-06T22:58:18.464Z,14.43
2018-10-06T23:00:46.630Z,14.15
2018-10-06T23:03:14.882Z,14.28
2018-10-06T23:05:43.090Z,13.35
2018-10-06T23:08:11.394Z,13.40
2018-10-06T23:10:39.731Z,13.55
2018-10-06T23:13:07.950Z,13.83
2018-10-06T23:15:36.129Z,12.85
2018-10-06T23:18:04.165Z,13.60
2018-10-06T23:20:32.497Z,13.25
2018-10-06T23:23:00.630Z,14.55
2018-10-06T23:25:28.934Z,13.80
2018-10-06T23:27:57.016Z,12.78
2018-10-06T23:30:25.272Z,12.80
2018-10-06T23:32:53.437Z,12.43
2018-10-06T23:35:21.526Z,12.75
2018-10-06T23:37:49.573Z,12.93
2018-10-06T23:40:17.861Z,12.60
2018-10-06T23:42:46.087Z,12.20
2018-10-06T23:45:14.194Z,12.20
2018-10-06T23:47:42.293Z,12.87
2018-10-06T23:50:10.477Z,12.78
2018-10-06T23:52:38.637Z,13.17
2018-10-06T23:55:06.888Z,10.53
2018-10-06T23:57:35.009Z,9.95
